createdAt,value
2023-02-06T00:01:50.995Z,102532.96
2023-02-06T00:04:20.279Z,102537.52
2023-02-06T00:06:49.177Z,102540.84
2023-02-06T00:09:17.357Z,102542.40
2023-02-06T00:11:45.948Z,102541.16
2023-02-06T00:14:14.744Z,102539.77
2023-02-06T00:16:42.916Z,102540.49
2023-02-06T00:19:11.414Z,102539.81
2023-02-06T00:21:39.996Z,102544.21
2023-02-06T00:24:08.486Z,102540.17
2023-02-06T00:26:36.663Z,102539.45
2023-02-06T00:29:05.049Z,102540.67
2023-02-06T00:31:33.857Z,102540.50
2023-02-06T00:34:03.969Z,102535.92
2023-02-06T00:36:33.730Z,102536.63
2023-02-06T00:39:02.065Z,102534.70
2023-02-06T00:41:30.759Z,102535.58
2023-02-06T00:43:59.141Z,102530.14
2023-02-06T00:46:27.852Z,102526.63
2023-02-06T00:48:56.730Z,102530.33
2023-02-06T00:51:25.322Z,102529.63
2023-02-06T00:53:53.501Z,102528.73
2023-02-06T00:56:21.992Z,102526.81
2023-02-06T00:58:50.476Z,102522.23
2023-02-06T01:01:19.104Z,102519.05
2023-02-06T01:03:47.859Z,102521.69
2023-02-06T01:06:16.645Z,102517.64
2023-02-06T01:08:45.530Z,102513.77
2023-02-06T01:11:21.389Z,102520.10
2023-02-06T01:13:50.097Z,102516.05
2023-02-06T01:16:22.421Z,102516.40
2023-02-06T01:18:51.160Z,102515.17
2023-02-06T01:21:22.829Z,102515.01
2023-02-06T01:23:54.265Z,102520.12
2023-02-06T01:26:25.925Z,102524.84
2023-02-06T01:28:55.640Z,102528.19
2023-02-06T01:31:27.442Z,102527.84
2023-02-06T01:33:58.245Z,102535.58
2023-02-06T01:36:27.462Z,102535.05
2023-02-06T01:38:57.982Z,102537.68
2023-02-06T01:41:26.470Z,102533.67
2023-02-06T01:44:10.857Z,102529.63
2023-02-06T01:46:44.964Z,102530.17
2023-02-06T01:49:26.206Z,102531.23
2023-02-06T01:52:00.537Z,102540.40
2023-02-06T01:54:28.807Z,102535.98
2023-02-06T01:57:02.451Z,102534.95
2023-02-06T01:59:30.999Z,102534.05
2023-02-06T02:01:59.770Z,102535.81
2023-02-06T02:04:31.452Z,102539.16
2023-02-06T02:07:12.075Z,102538.29
2023-02-06T02:09:40.399Z,102536.52
2023-02-06T02:12:08.798Z,102534.05
2023-02-06T02:14:39.772Z,102535.10
2023-02-06T02:17:41.483Z,102537.37
2023-02-06T02:20:47.114Z,102543.38
2023-02-06T02:23:44.559Z,102548.83
2023-02-06T02:26:15.709Z,102553.22
2023-02-06T02:29:05.995Z,102551.98
2023-02-06T02:31:56.179Z,102548.65
2023-02-06T02:34:30.514Z,102553.08
2023-02-06T02:37:43.930Z,102555.89
2023-02-06T02:40:33.374Z,102565.56
2023-02-06T02:43:14.627Z,102569.59
2023-02-06T02:46:31.852Z,102566.95
2023-02-06T02:49:06.205Z,102576.09
2023-02-06T02:51:38.437Z,102577.32
2023-02-06T02:54:07.332Z,102583.30
2023-02-06T02:56:36.030Z,102587.85
2023-02-06T02:59:23.909Z,102592.59
2023-02-06T03:02:18.663Z,102594.69
2023-02-06T03:04:55.973Z,102591.00
2023-02-06T03:07:47.439Z,102592.75
2023-02-06T03:10:48.071Z,102597.70
2023-02-06T03:13:38.241Z,102601.39
2023-02-06T03:16:45.640Z,102604.02
2023-02-06T03:19:27.399Z,102598.93
2023-02-06T03:21:55.769Z,102604.05
2023-02-06T03:24:27.640Z,102600.36
2023-02-06T03:27:00.848Z,102605.98
2023-02-06T03:29:33.780Z,102607.75
2023-02-06T03:32:30.769Z,102608.81
2023-02-06T03:35:05.294Z,102608.47
2023-02-06T03:37:35.603Z,102610.24
2023-02-06T03:40:06.060Z,102609.19
2023-02-06T03:42:38.945Z,102609.38
2023-02-06T03:45:17.845Z,102610.97
2023-02-06T03:47:49.116Z,102614.31
2023-02-06T03:50:18.291Z,102614.14
2023-02-06T03:52:50.699Z,102616.06
2023-02-06T03:55:22.271Z,102617.30
2023-02-06T03:57:55.345Z,102623.27
2023-02-06T04:00:25.698Z,102623.64
2023-02-06T04:02:56.441Z,102619.95
2023-02-06T04:05:25.213Z,102633.65
2023-02-06T04:07:56.684Z,102632.94
2023-02-06T04:10:26.284Z,102632.42
2023-02-06T04:12:55.070Z,102640.66
2023-02-06T04:15:24.077Z,102637.86
2023-02-06T04:18:00.485Z,102635.58
2023-02-06T04:20:30.279Z,102636.83
2023-02-06T04:22:59.006Z,102641.58
2023-02-06T04:25:27.847Z,102633.86
2023-02-06T04:27:56.170Z,102640.90
2023-02-06T04:30:25.144Z,102642.30
2023-02-06T04:32:53.717Z,102641.08
2023-02-06T04:35:21.999Z,102645.82
2023-02-06T04:37:50.177Z,102654.77
2023-02-06T04:40:18.661Z,102660.06
2023-02-06T04:42:47.042Z,102662.69
2023-02-06T04:45:15.427Z,102663.75
2023-02-06T04:47:44.023Z,102671.13
2023-02-06T04:50:12.308Z,102673.41
2023-02-06T04:52:41.089Z,102674.63
2023-02-06T04:55:10.164Z,102679.73
2023-02-06T04:57:38.794Z,102683.42
2023-02-06T05:00:09.196Z,102685.55
2023-02-06T05:02:39.980Z,102694.16
2023-02-06T05:05:09.764Z,102695.73
2023-02-06T05:07:38.050Z,102698.20
2023-02-06T05:10:09.039Z,102709.09
2023-02-06T05:12:37.977Z,102712.62
2023-02-06T05:15:06.781Z,102712.98
2023-02-06T05:17:35.560Z,102717.37
2023-02-06T05:20:04.939Z,102721.59
2023-02-06T05:22:33.058Z,102721.42
2023-02-06T05:25:01.546Z,102722.63
2023-02-06T05:27:29.928Z,102726.14
2023-02-06T05:29:58.838Z,102729.14
2023-02-06T05:32:27.111Z,102729.30
2023-02-06T05:34:55.495Z,102728.61
2023-02-06T05:37:23.877Z,102736.70
2023-02-06T05:39:52.165Z,102742.32
2023-02-06T05:42:20.441Z,102744.09
2023-02-06T05:44:48.725Z,102748.48
2023-02-06T05:47:17.011Z,102749.17
2023-02-06T05:49:45.392Z,102748.98
2023-02-06T05:52:14.973Z,102757.05
2023-02-06T05:54:43.185Z,102755.47
2023-02-06T05:57:12.088Z,102760.54
2023-02-06T05:59:40.976Z,102761.56
2023-02-06T06:02:09.884Z,102765.77
2023-02-06T06:04:38.384Z,102766.27
2023-02-06T06:07:06.851Z,102767.81
2023-02-06T06:09:35.028Z,102767.48
2023-02-06T06:12:03.752Z,102764.12
2023-02-06T06:14:32.520Z,102764.64
2023-02-06T06:17:01.370Z,102766.42
2023-02-06T06:19:29.697Z,102769.40
2023-02-06T06:21:58.414Z,102772.56
2023-02-06T06:24:27.322Z,102775.52
2023-02-06T06:26:56.075Z,102777.45
2023-02-06T06:29:24.563Z,102775.15
2023-02-06T06:31:53.608Z,102774.95
2023-02-06T06:34:22.484Z,102777.91
2023-02-06T06:36:50.842Z,102778.80
2023-02-06T06:39:19.224Z,102777.70
2023-02-06T06:41:47.408Z,102775.40
2023-02-06T06:44:15.682Z,102780.47
2023-02-06T06:46:45.198Z,102780.46
2023-02-06T06:49:13.893Z,102784.33
2023-02-06T06:51:42.073Z,102779.91
2023-02-06T06:54:10.448Z,102778.33
2023-02-06T06:56:38.630Z,102780.80
2023-02-06T06:59:07.116Z,102779.20
2023-02-06T07:01:35.611Z,102784.45
2023-02-06T07:04:04.166Z,102786.00
2023-02-06T07:06:32.786Z,102787.06
2023-02-06T07:09:01.063Z,102785.60
2023-02-06T07:11:29.560Z,102789.06
2023-02-06T07:13:57.837Z,102793.94
2023-02-06T07:16:26.401Z,102794.95
2023-02-06T07:18:54.709Z,102796.30
2023-02-06T07:21:23.089Z,102801.16
2023-02-06T07:23:51.377Z,102803.17
2023-02-06T07:26:19.965Z,102802.08
2023-02-06T07:28:50.084Z,102799.02
2023-02-06T07:31:18.605Z,102806.17
2023-02-06T07:33:47.069Z,102810.55
2023-02-06T07:36:16.275Z,102815.52
2023-02-06T07:38:44.645Z,102820.54
2023-02-06T07:41:13.031Z,102820.39
2023-02-06T07:43:41.317Z,102818.96
2023-02-06T07:46:09.739Z,102818.82
2023-02-06T07:48:38.388Z,102816.84
2023-02-06T07:51:09.759Z,102817.14
2023-02-06T07:53:39.031Z,102821.30
2023-02-06T07:56:16.262Z,102825.81
2023-02-06T07:58:47.420Z,102826.78
2023-02-06T08:01:15.784Z,102828.00
2023-02-06T08:03:44.559Z,102828.10
2023-02-06T08:06:15.351Z,102828.91
2023-02-06T08:08:44.329Z,102829.77
2023-02-06T08:11:15.849Z,102833.10
2023-02-06T08:13:46.592Z,102832.58
2023-02-06T08:16:18.214Z,102832.11
2023-02-06T08:18:47.287Z,102825.89
2023-02-06T08:21:22.953Z,102826.66
2023-02-06T08:23:57.218Z,102830.66
2023-02-06T08:26:27.651Z,102828.03
2023-02-06T08:28:58.029Z,102827.49
2023-02-06T08:31:29.093Z,102821.00
2023-02-06T08:33:57.727Z,102828.45
2023-02-06T08:36:27.285Z,102833.39
2023-02-06T08:38:55.608Z,102835.50
2023-02-06T08:41:30.030Z,102841.36
2023-02-06T08:44:00.692Z,102847.02
2023-02-06T08:46:31.887Z,102844.39
2023-02-06T08:49:11.043Z,102848.61
2023-02-06T08:51:39.637Z,102852.67
2023-02-06T08:54:11.912Z,102854.45
2023-02-06T08:56:40.510Z,102856.40
2023-02-06T08:59:10.987Z,102856.91
2023-02-06T09:01:40.056Z,102857.95
2023-02-06T09:04:11.437Z,102858.80
2023-02-06T09:06:43.195Z,102858.41
2023-02-06T09:09:12.453Z,102849.87
2023-02-06T09:11:42.300Z,102849.26
2023-02-06T09:14:15.869Z,102845.10
2023-02-06T09:16:44.468Z,102844.73
2023-02-06T09:19:13.248Z,102838.25
2023-02-06T09:21:41.944Z,102835.16
2023-02-06T09:24:10.429Z,102833.11
2023-02-06T09:26:58.033Z,102834.23
2023-02-06T09:29:29.874Z,102831.52
2023-02-06T09:31:58.408Z,102828.29
2023-02-06T09:34:27.858Z,102827.80
2023-02-06T09:36:57.140Z,102832.11
2023-02-06T09:39:26.004Z,102831.58
2023-02-06T09:42:06.383Z,102817.51
2023-02-06T09:44:39.232Z,102820.23
2023-02-06T09:47:32.365Z,102823.30
2023-02-06T09:50:07.870Z,102828.18
2023-02-06T09:52:46.154Z,102822.87
2023-02-06T09:55:34.098Z,102830.06
2023-02-06T09:58:42.608Z,102820.75
2023-02-06T10:01:30.134Z,102826.66
2023-02-06T10:04:13.306Z,102824.88
2023-02-06T10:06:54.300Z,102822.52
2023-02-06T10:09:44.380Z,102821.25
2023-02-06T10:12:36.216Z,102823.89
2023-02-06T10:15:16.564Z,102823.40
2023-02-06T10:17:57.019Z,102816.81
2023-02-06T10:20:51.648Z,102815.81
2023-02-06T10:23:32.568Z,102815.35
2023-02-06T10:26:22.850Z,102811.20
2023-02-06T10:28:56.578Z,102818.41
2023-02-06T10:31:25.053Z,102815.73
2023-02-06T10:34:12.369Z,102816.42
2023-02-06T10:36:49.857Z,102818.89
2023-02-06T10:39:33.797Z,102813.40
2023-02-06T10:42:38.817Z,102818.02
2023-02-06T10:45:31.836Z,102821.76
2023-02-06T10:48:39.242Z,102823.10
2023-02-06T10:51:27.788Z,102825.11
2023-02-06T10:54:17.862Z,102827.87
2023-02-06T10:56:48.046Z,102832.62
2023-02-06T10:59:34.484Z,102828.70
2023-02-06T11:02:16.527Z,102834.90
2023-02-06T11:04:50.900Z,102832.42
2023-02-06T11:07:27.267Z,102833.34
2023-02-06T11:09:55.965Z,102834.96
2023-02-06T11:12:35.797Z,102833.76
2023-02-06T11:15:32.844Z,102832.66
2023-02-06T11:18:04.705Z,102834.92
2023-02-06T11:20:36.570Z,102834.54
2023-02-06T11:23:23.036Z,102833.42
2023-02-06T11:26:14.526Z,102829.23
2023-02-06T11:29:09.673Z,102833.39
2023-02-06T11:31:38.552Z,102833.56
2023-02-06T11:34:18.339Z,102826.73
2023-02-06T11:36:52.329Z,102826.45
2023-02-06T11:39:22.318Z,102824.32
2023-02-06T11:42:02.920Z,102828.23
2023-02-06T11:44:40.423Z,102823.60
2023-02-06T11:47:35.509Z,102820.50
2023-02-06T11:50:20.474Z,102822.23
2023-02-06T11:52:48.944Z,102825.20
2023-02-06T11:55:27.156Z,102827.05
2023-02-06T11:58:20.097Z,102826.25
2023-02-06T12:00:51.897Z,102827.15
2023-02-06T12:03:51.691Z,102834.69
2023-02-06T12:06:40.524Z,102841.05
2023-02-06T12:09:13.184Z,102842.30
2023-02-06T12:12:13.715Z,102846.08
2023-02-06T12:15:18.241Z,102846.09
2023-02-06T12:18:02.962Z,102852.10
2023-02-06T12:20:35.200Z,102853.42
2023-02-06T12:23:21.035Z,102851.05
2023-02-06T12:25:53.970Z,102845.03
2023-02-06T12:28:22.562Z,102840.98
2023-02-06T12:30:56.158Z,102838.88
2023-02-06T12:33:36.320Z,102839.98
2023-02-06T12:36:17.786Z,102840.70
2023-02-06T12:39:08.749Z,102843.39
2023-02-06T12:41:46.238Z,102839.66
2023-02-06T12:44:28.263Z,102834.35
2023-02-06T12:47:12.682Z,102842.79
2023-02-06T12:50:04.130Z,102845.23
2023-02-06T12:52:44.553Z,102842.73
2023-02-06T12:55:18.868Z,102842.80
2023-02-06T12:57:47.828Z,102843.68
2023-02-06T13:00:45.941Z,102846.71
2023-02-06T13:03:20.251Z,102850.66
2023-02-06T13:05:54.314Z,102856.35
2023-02-06T13:08:31.042Z,102854.13
2023-02-06T13:11:09.359Z,102852.43
2023-02-06T13:13:42.309Z,102859.70
2023-02-06T13:16:10.758Z,102849.84
2023-02-06T13:18:41.926Z,102849.70
2023-02-06T13:21:15.328Z,102848.81
2023-02-06T13:23:50.622Z,102849.16
2023-02-06T13:26:19.105Z,102853.21
2023-02-06T13:28:58.458Z,102851.06
2023-02-06T13:31:29.129Z,102850.15
2023-02-06T13:34:01.864Z,102849.64
2023-02-06T13:36:49.305Z,102855.12
2023-02-06T13:39:27.182Z,102858.14
2023-02-06T13:41:56.660Z,102860.80
2023-02-06T13:44:32.547Z,102867.54
2023-02-06T13:47:16.181Z,102870.38
2023-02-06T13:49:56.944Z,102871.45
2023-02-06T13:52:39.864Z,102869.88
2023-02-06T13:55:38.910Z,102871.08
2023-02-06T13:58:30.477Z,102872.61
2023-02-06T14:01:00.246Z,102872.23
2023-02-06T14:03:34.544Z,102872.56
2023-02-06T14:06:24.881Z,102873.80
2023-02-06T14:09:12.712Z,102870.11
2023-02-06T14:12:33.497Z,102866.40
2023-02-06T14:15:17.221Z,102875.08
2023-02-06T14:18:15.789Z,102876.54
2023-02-06T14:21:03.104Z,102875.17
2023-02-06T14:24:06.793Z,102877.12
2023-02-06T14:27:09.152Z,102879.27
2023-02-06T14:30:12.228Z,102884.55
2023-02-06T14:33:02.306Z,102888.61
2023-02-06T14:36:01.503Z,102891.45
2023-02-06T14:38:54.137Z,102888.84
2023-02-06T14:41:23.234Z,102886.75
2023-02-06T14:43:51.926Z,102887.33
2023-02-06T14:46:20.549Z,102888.92
2023-02-06T14:48:55.454Z,102890.16
2023-02-06T14:51:31.924Z,102887.38
2023-02-06T14:54:03.276Z,102892.66
2023-02-06T14:56:32.880Z,102890.73
2023-02-06T14:59:13.345Z,102893.54
2023-02-06T15:01:44.081Z,102897.07
2023-02-06T15:04:16.770Z,102902.02
2023-02-06T15:06:57.842Z,102899.20
2023-02-06T15:09:44.118Z,102907.48
2023-02-06T15:12:25.129Z,102906.27
2023-02-06T15:15:04.746Z,102910.68
2023-02-06T15:17:34.560Z,102911.55
2023-02-06T15:20:18.822Z,102922.31
2023-02-06T15:22:47.242Z,102924.62
2023-02-06T15:25:57.434Z,102924.61
2023-02-06T15:28:31.141Z,102929.38
2023-02-06T15:31:01.789Z,102930.58
2023-02-06T15:33:35.056Z,102937.27
2023-02-06T15:36:04.543Z,102942.73
2023-02-06T15:38:34.278Z,102950.46
2023-02-06T15:41:06.582Z,102950.46
2023-02-06T15:43:35.920Z,102957.14
2023-02-06T15:46:06.395Z,102964.35
2023-02-06T15:48:58.494Z,102962.23
2023-02-06T15:51:39.197Z,102970.86
2023-02-06T15:54:27.151Z,102978.81
2023-02-06T15:57:07.899Z,102985.34
2023-02-06T15:59:40.133Z,102988.70
2023-02-06T16:02:22.787Z,102992.23
2023-02-06T16:04:53.418Z,102995.77
2023-02-06T16:07:25.041Z,102998.61
2023-02-06T16:09:59.836Z,102998.98
2023-02-06T16:12:33.931Z,102998.80
2023-02-06T16:15:22.583Z,102997.02
2023-02-06T16:17:51.879Z,103001.42
2023-02-06T16:20:29.157Z,103002.48
2023-02-06T16:23:28.900Z,103004.94
2023-02-06T16:26:17.811Z,103011.98
2023-02-06T16:28:57.972Z,103014.44
2023-02-06T16:31:29.832Z,103014.27
2023-02-06T16:34:05.388Z,103023.27
2023-02-06T16:36:33.773Z,103028.55
2023-02-06T16:39:04.567Z,103025.92
2023-02-06T16:41:35.123Z,103025.22
2023-02-06T16:44:07.258Z,103025.41
2023-02-06T16:46:35.707Z,103026.30
2023-02-06T16:49:13.029Z,103030.72
2023-02-06T16:51:43.705Z,103033.01
2023-02-06T16:54:32.512Z,103032.48
2023-02-06T16:57:20.592Z,103040.41
2023-02-06T16:59:49.599Z,103042.89
2023-02-06T17:02:18.482Z,103043.24
2023-02-06T17:04:48.063Z,103045.17
2023-02-06T17:07:28.413Z,103046.57
2023-02-06T17:09:58.777Z,103051.67
2023-02-06T17:12:28.431Z,103056.09
2023-02-06T17:14:56.805Z,103058.02
2023-02-06T17:17:25.066Z,103056.61
2023-02-06T17:19:53.651Z,103055.55
2023-02-06T17:22:21.939Z,103055.72
2023-02-06T17:24:50.132Z,103054.48
2023-02-06T17:27:21.704Z,103053.09
2023-02-06T17:29:50.878Z,103055.72
2023-02-06T17:32:23.383Z,103052.90
2023-02-06T17:34:54.353Z,103055.02
2023-02-06T17:37:23.015Z,103055.38
2023-02-06T17:39:52.423Z,103051.33
2023-02-06T17:42:23.118Z,103052.55
2023-02-06T17:44:51.827Z,103052.39
2023-02-06T17:47:20.225Z,103055.20
2023-02-06T17:49:48.721Z,103056.79
2023-02-06T17:52:18.056Z,103051.86
2023-02-06T17:54:46.399Z,103052.40
2023-02-06T17:57:14.801Z,103050.27
2023-02-06T17:59:43.158Z,103048.16
2023-02-06T18:02:14.923Z,103046.05
2023-02-06T18:04:43.615Z,103038.13
2023-02-06T18:07:11.835Z,103041.48
2023-02-06T18:09:42.162Z,103038.66
2023-02-06T18:12:10.915Z,103040.25
2023-02-06T18:14:40.577Z,103041.48
2023-02-06T18:17:11.165Z,103043.07
2023-02-06T18:19:44.258Z,103045.53
2023-02-06T18:22:16.017Z,103048.54
2023-02-06T18:24:44.611Z,103052.23
2023-02-06T18:27:13.803Z,103050.28
2023-02-06T18:29:50.638Z,103049.41
2023-02-06T18:32:20.001Z,103046.23
2023-02-06T18:34:48.815Z,103047.30
2023-02-06T18:37:17.374Z,103048.00
2023-02-06T18:39:45.552Z,103049.76
2023-02-06T18:42:32.259Z,103048.70
2023-02-06T18:45:02.042Z,103050.30
2023-02-06T18:47:31.684Z,103049.41
2023-02-06T18:50:00.169Z,103051.52
2023-02-06T18:52:29.152Z,103057.33
2023-02-06T18:54:57.563Z,103054.51
2023-02-06T18:57:25.729Z,103058.90
2023-02-06T18:59:54.088Z,103058.71
2023-02-06T19:02:22.617Z,103066.10
2023-02-06T19:04:51.345Z,103063.27
2023-02-06T19:07:19.581Z,103061.86
2023-02-06T19:09:47.962Z,103061.68
2023-02-06T19:12:16.756Z,103068.17
2023-02-06T19:14:45.344Z,103073.63
2023-02-06T19:17:13.731Z,103070.64
2023-02-06T19:19:42.113Z,103071.35
2023-02-06T19:22:10.404Z,103071.52
2023-02-06T19:24:38.984Z,103077.82
2023-02-06T19:27:07.267Z,103079.56
2023-02-06T19:29:36.708Z,103081.16
2023-02-06T19:32:09.821Z,103083.43
2023-02-06T19:34:39.910Z,103087.45
2023-02-06T19:37:10.015Z,103090.77
2023-02-06T19:39:40.420Z,103089.36
2023-02-06T19:42:10.869Z,103095.50
2023-02-06T19:44:39.054Z,103095.65
2023-02-06T19:47:07.346Z,103100.22
2023-02-06T19:49:36.172Z,103103.02
2023-02-06T19:52:04.615Z,103103.04
2023-02-06T19:54:33.004Z,103103.21
2023-02-06T19:57:01.179Z,103101.08
2023-02-06T19:59:30.464Z,103107.73
2023-02-06T20:02:02.146Z,103104.74
2023-02-06T20:04:34.832Z,103102.98
2023-02-06T20:07:03.506Z,103101.76
2023-02-06T20:09:31.929Z,103096.80
2023-02-06T20:12:00.516Z,103097.86
2023-02-06T20:14:29.286Z,103091.18
2023-02-06T20:16:57.808Z,103088.89
2023-02-06T20:19:28.210Z,103095.74
2023-02-06T20:21:58.847Z,103094.52
2023-02-06T20:24:30.215Z,103090.66
2023-02-06T20:27:02.475Z,103089.27
2023-02-06T20:29:36.600Z,103086.11
2023-02-06T20:32:06.636Z,103085.92
2023-02-06T20:34:35.707Z,103083.45
2023-02-06T20:37:04.927Z,103082.74
2023-02-06T20:39:33.300Z,103080.27
2023-02-06T20:42:02.101Z,103083.08
2023-02-06T20:44:30.949Z,103078.85
2023-02-06T20:46:59.583Z,103083.41
2023-02-06T20:49:31.288Z,103080.41
2023-02-06T20:52:00.058Z,103083.23
2023-02-06T20:54:28.510Z,103081.29
2023-02-06T20:56:56.803Z,103081.13
2023-02-06T20:59:25.757Z,103077.79
2023-02-06T21:01:54.184Z,103082.69
2023-02-06T21:04:22.558Z,103081.28
2023-02-06T21:06:51.460Z,103084.08
2023-02-06T21:09:19.845Z,103084.79
2023-02-06T21:11:50.234Z,103089.70
2023-02-06T21:14:19.937Z,103096.38
2023-02-06T21:16:49.076Z,103092.88
2023-02-06T21:19:20.492Z,103095.14
2023-02-06T21:21:49.652Z,103096.72
2023-02-06T21:24:18.557Z,103099.16
2023-02-06T21:26:47.435Z,103101.61
2023-02-06T21:29:16.947Z,103106.88
2023-02-06T21:31:46.451Z,103108.98
2023-02-06T21:34:17.860Z,103110.18
2023-02-06T21:36:46.559Z,103111.90
2023-02-06T21:39:17.506Z,103113.81
2023-02-06T21:41:46.896Z,103112.20
2023-02-06T21:44:15.133Z,103109.71
2023-02-06T21:46:43.521Z,103112.82
2023-02-06T21:49:13.136Z,103108.94
2023-02-06T21:51:41.574Z,103107.88
2023-02-06T21:54:10.018Z,103102.27
2023-02-06T21:56:38.899Z,103102.13
2023-02-06T21:59:09.546Z,103102.66
2023-02-06T22:01:40.694Z,103103.38
2023-02-06T22:04:11.317Z,103101.27
2023-02-06T22:06:40.317Z,103101.63
2023-02-06T22:09:15.323Z,103098.66
2023-02-06T22:11:44.607Z,103103.39
2023-02-06T22:14:16.833Z,103104.25
2023-02-06T22:16:48.550Z,103106.52
2023-02-06T22:19:18.378Z,103108.44
2023-02-06T22:21:46.797Z,103110.36
2023-02-06T22:24:14.971Z,103112.13
2023-02-06T22:26:43.568Z,103114.41
2023-02-06T22:29:14.716Z,103112.64
2023-02-06T22:31:44.524Z,103110.17
2023-02-06T22:34:18.948Z,103108.37
2023-02-06T22:36:48.304Z,103108.01
2023-02-06T22:39:17.042Z,103109.92
2023-02-06T22:41:46.534Z,103112.02
2023-02-06T22:44:16.881Z,103112.03
2023-02-06T22:46:48.789Z,103116.24
2023-02-06T22:49:19.401Z,103115.90
2023-02-06T22:51:47.876Z,103119.23
2023-02-06T22:54:16.775Z,103122.05
2023-02-06T22:56:45.869Z,103120.65
2023-02-06T22:59:14.247Z,103129.41
2023-02-06T23:01:58.019Z,103129.74
2023-02-06T23:04:30.269Z,103128.65
2023-02-06T23:06:58.437Z,103133.40
2023-02-06T23:09:29.696Z,103128.84
2023-02-06T23:11:59.012Z,103125.33
2023-02-06T23:14:30.392Z,103126.73
2023-02-06T23:17:02.420Z,103124.06
2023-02-06T23:19:30.711Z,103121.39
2023-02-06T23:21:59.085Z,103120.46
2023-02-06T23:24:27.877Z,103117.94
2023-02-06T23:26:56.264Z,103116.32
2023-02-06T23:29:25.886Z,103113.98
2023-02-06T23:31:55.900Z,103108.32
2023-02-06T23:34:24.701Z,103105.98
2023-02-06T23:36:53.302Z,103103.98
2023-02-06T23:39:22.177Z,103099.21
2023-02-06T23:41:50.556Z,103105.86
2023-02-06T23:44:19.465Z,103106.35
2023-02-06T23:46:48.158Z,103100.58
2023-02-06T23:49:16.732Z,103102.17
2023-02-06T23:51:45.741Z,103106.74
2023-02-06T23:54:13.983Z,103107.98
2023-02-06T23:56:42.305Z,103112.71
2023-02-06T23:59:12.117Z,103126.59
